Terminal Aerodrome Forecast
Issued by NWS

Current Version | Previous Version | Text Only | Print | Product List | Glossary Off
Versions: 1 2 3 4 5 6 7 8 9 10 11 12 13 14 15 16 17 18 19 20 21 22 23

000
FTUS41 KPBZ 062320
TAFMGW
TAF
KMGW 062320Z 0700/0724 VRB03KT P6SM VCSH SCT035 SCT100
     FM070300 VRB03KT P6SM SCT100
     FM070900 VRB03KT 5SM BR SCT150
     FM071500 22011G18KT P6SM BKN035=

USA.gov is the U.S. government's official web portal to all federal, state and local government web resources and services.